Time;durP1;ratioP1;P1;durP2;ratioP2;P2;SDS_P1;SDS_P2;PMS_P1;PMS_P2;Temp;Humidity;BMP_temperature;BMP_pressure;BME280_temperature;BME280_humidity;BME280_pressure;Samples;Min_cycle;Max_cycle;Signal;HPM_P1;HPM_P2
2022/09/20 00:03:04;;;;;;;10.30;4.47;;;;;11.40;99393.00;;;;16521067;28;20219;-48
2022/09/20 00:11:08;;;;;;;6.63;4.50;;;;;11.30;99379.00;;;;16518938;28;20204;-48
2022/09/20 00:19:17;;;;;;;5.60;4.50;;;;;11.50;99376.00;;;;16515670;28;20232;-48
2022/09/20 00:27:20;;;;;;;6.30;3.93;;;;;11.90;99379.00;;;;16505591;28;20284;-48
2022/09/20 00:35:24;;;;;;;6.10;4.17;;;;;11.70;99374.00;;;;16512831;28;20711;-48
2022/09/20 00:43:37;;;;;;;6.07;3.93;;;;;11.50;99378.00;;;;16516316;28;20216;-48
2022/09/20 00:51:45;;;;;;;7.20;4.00;;;;;11.30;99380.00;;;;16497379;28;20602;-48
2022/09/20 00:59:48;;;;;;;3.47;3.17;;;;;11.50;99371.00;;;;16512303;28;20346;-46
2022/09/20 01:07:53;;;;;;;3.97;3.67;;;;;11.40;99375.00;;;;16509481;28;20218;-48
2022/09/20 01:15:57;;;;;;;6.07;3.80;;;;;11.40;99375.00;;;;16514431;28;20238;-48
2022/09/20 01:24:06;;;;;;;5.60;3.73;;;;;11.40;99368.00;;;;16507343;28;20216;-48
2022/09/20 01:32:13;;;;;;;4.60;3.63;;;;;11.60;99368.00;;;;16512610;28;20241;-48
2022/09/20 01:40:25;;;;;;;4.90;3.37;;;;;11.60;99359.00;;;;16514438;28;20572;-48
2022/09/20 01:48:35;;;;;;;8.17;4.50;;;;;11.40;99370.00;;;;16511780;28;20216;-48
2022/09/20 01:57:08;;;;;;;4.67;3.70;;;;;11.50;99360.00;;;;16513454;28;20601;-48
2022/09/20 02:05:31;;;;;;;5.80;4.60;;;;;11.40;99367.00;;;;16508684;28;20220;-48
2022/09/20 02:13:55;;;;;;;4.33;3.30;;;;;11.30;99363.00;;;;16513894;28;20728;-48
2022/09/20 02:22:11;;;;;;;4.83;4.03;;;;;12.00;99348.00;;;;16485040;28;20223;-48
2022/09/20 02:30:20;;;;;;;7.80;3.83;;;;;11.50;99347.00;;;;16517953;28;20207;-48
2022/09/20 02:38:45;;;;;;;6.27;4.40;;;;;11.40;99358.00;;;;16525050;28;20227;-48
2022/09/20 02:46:53;;;;;;;5.90;3.57;;;;;11.60;99350.00;;;;16523745;28;20733;-47
2022/09/20 02:55:01;;;;;;;3.93;3.53;;;;;11.50;99364.00;;;;16512788;28;20242;-48
2022/09/20 03:03:11;;;;;;;6.07;3.93;;;;;11.60;99356.00;;;;16524062;28;20216;-48
2022/09/20 03:11:20;;;;;;;6.40;4.17;;;;;11.50;99367.00;;;;16522483;28;20200;-48
2022/09/20 03:19:33;;;;;;;6.73;3.97;;;;;12.10;99366.00;;;;16521597;28;20196;-49
2022/09/20 03:27:43;;;;;;;6.13;3.90;;;;;12.00;99368.00;;;;16515099;28;20476;-48
2022/09/20 03:35:55;;;;;;;6.93;3.73;;;;;11.70;99373.00;;;;16517190;28;20234;-48
2022/09/20 03:44:09;;;;;;;6.63;3.70;;;;;11.80;99375.00;;;;16523527;28;20383;-48
2022/09/20 03:52:20;;;;;;;7.50;3.67;;;;;12.20;99367.00;;;;16514249;28;20315;-48
2022/09/20 04:00:30;;;;;;;3.97;3.13;;;;;12.10;99376.00;;;;16521802;28;20241;-48
2022/09/20 04:08:58;;;;;;;5.10;3.67;;;;;11.90;99383.00;;;;16512239;28;20226;-48
2022/09/20 04:17:11;;;;;;;5.17;3.70;;;;;12.60;99380.00;;;;16487470;28;20259;-49
2022/09/20 04:25:16;;;;;;;3.60;3.20;;;;;12.30;99384.00;;;;16482985;28;20231;-48
2022/09/20 04:33:23;;;;;;;5.27;3.40;;;;;12.50;99382.00;;;;16483817;28;20221;-48
2022/09/20 04:41:54;;;;;;;4.53;3.20;;;;;12.50;99389.00;;;;16499459;28;20204;-48
2022/09/20 04:50:25;;;;;;;5.97;3.60;;;;;11.90;99403.00;;;;16567292;23;20239;-48
2022/09/20 04:58:57;;;;;;;4.10;3.80;;;;;12.90;99401.00;;;;16571829;28;20234;-49
2022/09/20 05:07:27;;;;;;;5.77;4.03;;;;;13.10;99406.00;;;;16566716;28;20214;-48
2022/09/20 05:15:38;;;;;;;5.17;3.83;;;;;13.30;99403.00;;;;16561313;28;20216;-48
2022/09/20 05:24:08;;;;;;;6.33;3.80;;;;;13.40;99408.00;;;;16565137;28;20221;-48
2022/09/20 05:32:18;;;;;;;7.93;3.90;;;;;13.70;99422.00;;;;16578605;28;20300;-48
2022/09/20 05:40:28;;;;;;;9.50;5.23;;;;;13.60;99421.00;;;;16574310;28;20231;-48
2022/09/20 05:48:37;;;;;;;4.93;4.53;;;;;13.80;99411.00;;;;16576113;28;20236;-49
2022/09/20 05:56:48;;;;;;;4.50;3.70;;;;;12.70;99431.00;;;;16578354;28;20367;-48
2022/09/20 06:05:00;;;;;;;3.97;3.40;;;;;12.40;99434.00;;;;16578299;28;20331;-48
2022/09/20 06:13:15;;;;;;;6.40;5.10;;;;;13.70;99443.00;;;;16593124;28;20312;-48
2022/09/20 06:21:25;;;;;;;14.33;6.30;;;;;13.90;99448.00;;;;16589042;28;20220;-48
2022/09/20 06:29:32;;;;;;;7.47;5.13;;;;;14.70;99437.00;;;;16594077;28;20218;-48
2022/09/20 06:46:04;;;;;;;14.03;5.53;;;;;15.30;99452.00;;;;16584534;28;20228;-48
2022/09/20 06:54:10;;;;;;;8.00;6.00;;;;;15.00;99457.00;;;;16598603;28;20291;-48
2022/09/20 07:02:14;;;;;;;6.83;5.30;;;;;15.40;99459.00;;;;16573138;28;20201;-48
2022/09/20 07:10:16;;;;;;;5.97;4.83;;;;;15.60;99454.00;;;;16593320;28;20774;-49
2022/09/20 07:18:20;;;;;;;5.73;4.77;;;;;16.00;99457.00;;;;16592463;28;20226;-47
2022/09/20 07:26:24;;;;;;;5.50;3.33;;;;;14.90;99474.00;;;;16590446;28;20226;-48
2022/09/20 07:34:28;;;;;;;5.20;3.90;;;;;14.10;99481.00;;;;16587290;28;20229;-47
2022/09/20 07:42:31;;;;;;;7.50;4.43;;;;;13.90;99481.00;;;;16594040;28;21044;-47
2022/09/20 07:50:35;;;;;;;7.60;3.83;;;;;14.10;99479.00;;;;16591943;28;20226;-47
2022/09/20 07:58:37;;;;;;;10.23;4.70;;;;;15.80;99478.00;;;;16595200;28;20244;-47
2022/09/20 08:06:43;;;;;;;8.10;4.33;;;;;15.80;99471.00;;;;16585477;28;20211;-47
2022/09/20 08:14:45;;;;;;;4.77;3.47;;;;;14.90;99501.00;;;;16576342;28;20234;-47
2022/09/20 08:22:49;;;;;;;4.53;3.60;;;;;16.00;99500.00;;;;16578914;28;20194;-47
2022/09/20 08:30:52;;;;;;;4.10;2.50;;;;;15.60;99495.00;;;;16580092;28;20219;-47
2022/09/20 08:38:56;;;;;;;4.43;2.70;;;;;14.70;99500.00;;;;16584694;28;20225;-47
2022/09/20 08:47:05;;;;;;;8.00;2.90;;;;;15.20;99492.00;;;;16576384;28;20223;-47
2022/09/20 08:55:15;;;;;;;7.93;3.00;;;;;15.70;99493.00;;;;16581514;28;20234;-47
2022/09/20 09:03:18;;;;;;;6.47;2.77;;;;;16.00;99484.00;;;;16575145;28;20204;-47
2022/09/20 09:11:22;;;;;;;5.10;2.57;;;;;16.60;99474.00;;;;16581127;28;20703;-47
2022/09/20 09:19:30;;;;;;;8.63;2.70;;;;;15.70;99483.00;;;;16578700;28;20230;-47
2022/09/20 09:27:34;;;;;;;5.90;2.53;;;;;15.10;99483.00;;;;16575149;28;20663;-47
2022/09/20 09:35:37;;;;;;;6.20;2.87;;;;;15.60;99490.00;;;;16583230;28;20250;-48
2022/09/20 09:43:41;;;;;;;4.40;1.73;;;;;15.40;99483.00;;;;16583332;28;20623;-47
2022/09/20 09:52:01;;;;;;;6.17;1.90;;;;;15.40;99484.00;;;;16586928;28;20282;-47
2022/09/20 10:00:11;;;;;;;5.80;2.00;;;;;16.00;99476.00;;;;16586119;28;20704;-47
2022/09/20 10:08:23;;;;;;;4.30;2.03;;;;;15.90;99474.00;;;;16593180;28;20222;-47
2022/09/20 10:16:47;;;;;;;10.80;2.90;;;;;15.50;99482.00;;;;16581715;28;20215;-47
2022/09/20 10:24:54;;;;;;;9.10;2.07;;;;;16.40;99481.00;;;;16569277;28;20303;-47
2022/09/20 10:33:06;;;;;;;6.17;2.03;;;;;16.60;99468.00;;;;16578754;28;20278;-48
2022/09/20 10:49:40;;;;;;;4.57;2.20;;;;;16.70;99458.00;;;;16588589;28;20707;-47
2022/09/20 10:58:15;;;;;;;6.53;1.87;;;;;16.40;99466.00;;;;16593225;28;20691;-47
2022/09/20 11:06:24;;;;;;;6.10;1.80;;;;;17.40;99456.00;;;;16572971;28;20656;-47
2022/09/20 11:14:32;;;;;;;4.07;1.33;;;;;17.60;99457.00;;;;16581112;23;20235;-71
2022/09/20 11:22:40;;;;;;;8.97;1.60;;;;;17.80;99450.00;;;;16467464;28;20665;-74
2022/09/20 11:30:51;;;;;;;5.50;2.07;;;;;18.60;99446.00;;;;16464226;28;20709;-73
2022/09/20 11:38:57;;;;;;;3.07;1.50;;;;;18.20;99443.00;;;;16462278;28;20748;-68
2022/09/20 11:47:03;;;;;;;4.13;1.97;;;;;18.40;99448.00;;;;16462731;28;20316;-70
2022/09/20 11:55:22;;;;;;;5.10;1.60;;;;;20.10;99433.00;;;;16460908;28;20704;-70
2022/09/20 12:03:30;;;;;;;6.13;1.43;;;;;19.00;99427.00;;;;16473224;28;20639;-69
2022/09/20 12:11:37;;;;;;;5.33;1.60;;;;;17.70;99434.00;;;;16459254;28;20363;-68
2022/09/20 12:19:40;;;;;;;2.60;1.60;;;;;17.70;99429.00;;;;16467788;28;20229;-71
2022/09/20 12:27:59;;;;;;;2.70;1.43;;;;;18.20;99419.00;;;;16461436;28;20219;-69
2022/09/20 12:36:27;;;;;;;6.77;2.03;;;;;19.50;99409.00;;;;16474972;28;20236;-70
2022/09/20 12:44:34;;;;;;;7.10;1.80;;;;;20.00;99409.00;;;;16454334;28;20211;-67
2022/09/20 12:52:56;;;;;;;2.23;1.50;;;;;19.90;99411.00;;;;16432911;28;20320;-68
2022/09/20 13:01:31;;;;;;;3.67;1.70;;;;;20.80;99403.00;;;;16433849;28;20228;-70
2022/09/20 13:09:33;;;;;;;3.17;1.57;;;;;18.80;99404.00;;;;16414573;28;20216;-69
2022/09/20 13:17:37;;;;;;;2.97;1.50;;;;;18.30;99413.00;;;;16440090;28;20697;-69
2022/09/20 13:25:40;;;;;;;3.60;1.80;;;;;18.50;99410.00;;;;16459253;28;20768;-69
2022/09/20 13:33:43;;;;;;;5.53;1.40;;;;;21.00;99397.00;;;;16452154;28;20620;-69
2022/09/20 13:41:47;;;;;;;2.17;1.40;;;;;21.10;99385.00;;;;16444473;28;20303;-67
2022/09/20 13:49:51;;;;;;;3.80;2.30;;;;;21.30;99390.00;;;;16427979;28;20226;-68
2022/09/20 13:57:54;;;;;;;4.23;1.40;;;;;19.00;99402.00;;;;16439170;28;20216;-73
2022/09/20 14:06:00;;;;;;;5.50;2.40;;;;;18.10;99419.00;;;;16462744;28;20199;-68
2022/09/20 14:14:06;;;;;;;4.73;1.90;;;;;17.50;99424.00;;;;16457926;28;20828;-69
2022/09/20 14:22:18;;;;;;;3.33;2.70;;;;;16.70;99451.00;;;;16450973;28;20229;-74
2022/09/20 14:30:31;;;;;;;3.63;1.70;;;;;16.50;99461.00;;;;16468100;28;20252;-70
2022/09/20 14:38:35;;;;;;;5.43;2.30;;;;;16.00;99468.00;;;;16461410;28;20236;-70
2022/09/20 14:46:38;;;;;;;4.60;2.07;;;;;16.30;99469.00;;;;16461638;28;20310;-69
2022/09/20 14:54:42;;;;;;;5.50;2.37;;;;;16.20;99454.00;;;;16477459;28;20219;-69
2022/09/20 15:02:46;;;;;;;8.63;2.03;;;;;17.00;99439.00;;;;16477902;28;20365;-67
2022/09/20 15:10:50;;;;;;;3.53;2.20;;;;;16.60;99458.00;;;;16452548;28;20236;-68
2022/09/20 15:18:53;;;;;;;8.37;4.00;;;;;17.10;99447.00;;;;16450342;28;20710;-69
2022/09/20 15:26:57;;;;;;;4.17;2.20;;;;;17.30;99446.00;;;;16451356;28;20332;-71
2022/09/20 15:35:00;;;;;;;7.07;2.10;;;;;18.60;99423.00;;;;16471914;28;20228;-68
2022/09/20 15:43:04;;;;;;;2.67;1.70;;;;;19.60;99425.00;;;;16454911;28;20213;-68
2022/09/20 15:51:10;;;;;;;4.23;1.70;;;;;20.90;99407.00;;;;16448542;28;21773;-71
2022/09/20 15:59:15;;;;;;;2.00;1.30;;;;;19.10;99409.00;;;;16455829;28;20237;-70
2022/09/20 16:07:17;;;;;;;2.67;1.43;;;;;18.70;99412.00;;;;16472499;28;20675;-72
2022/09/20 16:15:21;;;;;;;2.70;1.87;;;;;18.80;99424.00;;;;16460000;28;20259;-74
2022/09/20 16:23:24;;;;;;;2.80;1.80;;;;;18.80;99429.00;;;;16457316;28;20808;-68
2022/09/20 16:31:36;;;;;;;1.93;1.67;;;;;18.80;99434.00;;;;16442182;28;20941;-71
2022/09/20 16:39:39;;;;;;;4.97;2.17;;;;;17.80;99448.00;;;;16448355;28;20241;-68
2022/09/20 16:47:43;;;;;;;2.30;1.80;;;;;16.60;99457.00;;;;16436154;28;20809;-71
2022/09/20 16:55:46;;;;;;;2.30;1.87;;;;;16.30;99473.00;;;;16445922;28;20740;-67
2022/09/20 17:03:50;;;;;;;3.30;2.47;;;;;15.30;99476.00;;;;16449858;28;20217;-68
2022/09/20 17:11:53;;;;;;;3.27;2.97;;;;;14.90;99491.00;;;;16439570;28;20850;-68
2022/09/20 17:19:56;;;;;;;4.87;2.70;;;;;14.40;99506.00;;;;16449070;23;20331;-48
2022/09/20 17:27:59;;;;;;;4.97;2.53;;;;;14.20;99520.00;;;;16406324;28;20737;-48
2022/09/20 17:36:04;;;;;;;4.07;2.77;;;;;13.80;99524.00;;;;16401738;28;20259;-48
2022/09/20 17:44:08;;;;;;;4.77;3.33;;;;;13.50;99538.00;;;;16399002;28;20220;-48
2022/09/20 17:52:12;;;;;;;9.43;4.00;;;;;13.20;99545.00;;;;16401020;28;20215;-48
2022/09/20 18:00:15;;;;;;;4.03;3.60;;;;;13.00;99549.00;;;;16382714;28;20838;-47
2022/09/20 18:08:19;;;;;;;6.60;5.37;;;;;12.90;99563.00;;;;16384246;28;20225;-47
2022/09/20 18:16:21;;;;;;;11.57;7.30;;;;;13.10;99574.00;;;;16371316;28;20234;-48
2022/09/20 18:24:25;;;;;;;5.50;4.73;;;;;12.90;99578.00;;;;16375463;28;20712;-48
2022/09/20 18:32:29;;;;;;;11.83;4.87;;;;;12.70;99586.00;;;;16377959;28;20210;-49
2022/09/20 18:40:35;;;;;;;5.73;5.00;;;;;12.60;99603.00;;;;16384294;28;20258;-48
2022/09/20 18:48:39;;;;;;;7.93;5.00;;;;;12.40;99604.00;;;;16363228;28;20226;-48
2022/09/20 18:56:44;;;;;;;8.57;5.83;;;;;12.10;99619.00;;;;16405610;28;20221;-48
2022/09/20 19:05:05;;;;;;;6.30;4.33;;;;;11.80;99633.00;;;;16424256;28;20593;-47
2022/09/20 19:13:22;;;;;;;7.90;4.67;;;;;11.60;99644.00;;;;16423419;28;20545;-48
2022/09/20 19:21:31;;;;;;;4.47;3.90;;;;;11.60;99644.00;;;;16405475;28;20229;-48
2022/09/20 19:29:36;;;;;;;5.90;5.30;;;;;11.70;99659.00;;;;16393877;28;20235;-48
2022/09/20 19:37:56;;;;;;;9.90;4.47;;;;;11.70;99668.00;;;;16394827;28;20624;-48
2022/09/20 19:46:07;;;;;;;5.00;4.50;;;;;11.70;99676.00;;;;16396734;28;20230;-48
2022/09/20 19:54:12;;;;;;;14.93;5.30;;;;;11.60;99674.00;;;;16416863;28;20225;-49
2022/09/20 20:02:16;;;;;;;8.70;5.27;;;;;11.60;99673.00;;;;16427036;28;20201;-48
2022/09/20 20:10:23;;;;;;;5.43;4.93;;;;;11.80;99678.00;;;;16421961;28;20226;-49
2022/09/20 20:18:34;;;;;;;9.73;5.43;;;;;11.50;99682.00;;;;16387861;28;20244;-49
2022/09/20 20:26:37;;;;;;;5.43;4.90;;;;;11.10;99687.00;;;;16413644;28;20261;-50
2022/09/20 20:34:41;;;;;;;4.97;4.50;;;;;11.30;99689.00;;;;16412073;28;20302;-48
2022/09/20 20:42:44;;;;;;;4.90;4.40;;;;;11.10;99705.00;;;;16371255;28;20206;-49
2022/09/20 20:50:48;;;;;;;5.43;4.63;;;;;11.20;99701.00;;;;16362234;28;20214;-49
2022/09/20 20:58:50;;;;;;;9.80;5.10;;;;;11.70;99699.00;;;;16361041;28;20737;-48
2022/09/20 21:06:55;;;;;;;5.60;5.10;;;;;11.70;99698.00;;;;16398353;28;20250;-49
2022/09/20 21:14:57;;;;;;;6.10;4.70;;;;;11.50;99697.00;;;;16376267;28;20417;-49
2022/09/20 21:23:01;;;;;;;5.30;4.23;;;;;11.80;99699.00;;;;16386393;28;20217;-49
2022/09/20 21:31:04;;;;;;;6.20;4.60;;;;;11.80;99687.00;;;;16403940;28;20217;-48
2022/09/20 21:39:08;;;;;;;5.70;5.00;;;;;11.20;99710.00;;;;16417053;28;20244;-48
2022/09/20 21:47:19;;;;;;;5.70;4.87;;;;;11.30;99709.00;;;;16400656;28;20223;-48
2022/09/20 21:55:23;;;;;;;7.70;5.47;;;;;11.30;99712.00;;;;16407324;28;20600;-48
2022/09/20 22:03:25;;;;;;;5.53;4.80;;;;;10.70;99709.00;;;;16379527;28;20227;-50
2022/09/20 22:11:31;;;;;;;5.43;4.93;;;;;10.30;99720.00;;;;16395786;28;20197;-48
2022/09/20 22:19:33;;;;;;;10.03;5.37;;;;;10.20;99707.00;;;;16397407;28;20225;-47
2022/09/20 22:27:37;;;;;;;6.77;5.27;;;;;10.10;99709.00;;;;16401099;28;20247;-48
2022/09/20 22:35:44;;;;;;;11.80;5.20;;;;;10.20;99702.00;;;;16416537;28;20593;-48
2022/09/20 22:43:49;;;;;;;8.50;5.57;;;;;10.10;99702.00;;;;16420507;28;20360;-47
2022/09/20 22:51:51;;;;;;;8.17;5.77;;;;;10.50;99699.00;;;;16411725;28;20281;-48
2022/09/20 22:59:55;;;;;;;6.47;5.00;;;;;10.10;99697.00;;;;16425368;28;20229;-48
2022/09/20 23:07:57;;;;;;;6.23;5.50;;;;;9.60;99700.00;;;;16406124;28;20217;-48
2022/09/20 23:16:09;;;;;;;10.70;6.67;;;;;9.80;99702.00;;;;16432590;23;20239;-76
2022/09/20 23:24:13;;;;;;;7.43;4.63;;;;;9.40;99716.00;;;;16475165;28;20417;-76
2022/09/20 23:32:17;;;;;;;12.00;6.57;;;;;10.30;99713.00;;;;16481532;28;20216;-74
2022/09/20 23:40:20;;;;;;;6.83;6.20;;;;;9.70;99717.00;;;;16470773;28;20250;-74
2022/09/20 23:48:23;;;;;;;7.83;6.70;;;;;9.70;99719.00;;;;16450974;28;20290;-73
2022/09/20 23:56:27;;;;;;;8.37;7.27;;;;;9.30;99720.00;;;;16463942;28;20223;-77
